createdAt,value
2022-08-07T00:02:39.630Z,18.05
2022-08-07T00:07:18.852Z,17.94
2022-08-07T00:12:20.858Z,17.90
2022-08-07T00:17:22.646Z,17.89
2022-08-07T00:22:35.626Z,17.74
2022-08-07T00:27:52.440Z,17.72
2022-08-07T00:33:01.269Z,17.66
2022-08-07T00:38:05.501Z,17.42
2022-08-07T00:44:01.467Z,17.44
2022-08-07T00:48:34.097Z,17.51
2022-08-07T00:53:38.903Z,17.34
2022-08-07T00:58:52.687Z,17.30
2022-08-07T01:04:00.350Z,17.28
2022-08-07T01:09:03.960Z,17.27
2022-08-07T01:14:07.233Z,17.25
2022-08-07T01:19:19.238Z,17.20
2022-08-07T01:24:23.697Z,17.19
2022-08-07T01:29:31.513Z,17.14
2022-08-07T01:34:35.691Z,17.02
2022-08-07T01:39:41.489Z,17.05
2022-08-07T01:44:48.884Z,16.86
2022-08-07T01:49:53.620Z,16.64
2022-08-07T01:54:58.977Z,16.84
2022-08-07T02:00:13.391Z,16.84
2022-08-07T02:05:47.475Z,16.74
2022-08-07T02:10:58.514Z,16.66
2022-08-07T02:16:04.151Z,16.46
2022-08-07T02:21:09.360Z,16.48
2022-08-07T02:26:32.698Z,16.51
2022-08-07T02:31:38.737Z,16.52
2022-08-07T02:36:43.754Z,16.28
2022-08-07T02:41:54.374Z,16.14
2022-08-07T02:47:00.899Z,16.28
2022-08-07T02:52:08.868Z,16.34
2022-08-07T02:57:19.223Z,16.22
2022-08-07T03:02:24.226Z,16.19
2022-08-07T03:07:43.248Z,16.24
2022-08-07T03:12:54.236Z,16.25
2022-08-07T03:17:58.345Z,16.03
2022-08-07T03:23:03.056Z,16.06
2022-08-07T03:28:37.508Z,15.92
2022-08-07T03:33:40.069Z,15.93
2022-08-07T03:38:44.640Z,15.98
2022-08-07T03:43:56.786Z,15.80
2022-08-07T03:49:02.021Z,15.75
2022-08-07T03:54:35.171Z,15.90
2022-08-07T03:59:27.605Z,15.97
2022-08-07T04:04:32.748Z,15.90
2022-08-07T04:09:45.126Z,15.99
2022-08-07T04:14:53.510Z,15.99
2022-08-07T04:19:58.081Z,16.04
2022-08-07T04:25:00.977Z,15.87
2022-08-07T04:30:11.856Z,15.75
2022-08-07T04:35:16.133Z,15.77
2022-08-07T04:40:22.722Z,15.90
2022-08-07T04:46:12.430Z,16.03
2022-08-07T04:51:49.296Z,16.20
2022-08-07T04:58:10.237Z,16.27
2022-08-07T05:03:17.333Z,16.36
2022-08-07T05:09:01.352Z,16.41
2022-08-07T05:14:56.445Z,16.38
2022-08-07T05:19:45.331Z,16.59
2022-08-07T05:24:55.537Z,16.57
2022-08-07T05:29:58.825Z,16.65
2022-08-07T05:35:03.299Z,16.52
2022-08-07T05:40:18.267Z,16.58
2022-08-07T05:45:46.093Z,16.67
2022-08-07T05:50:50.566Z,16.78
2022-08-07T05:56:03.701Z,16.78
2022-08-07T06:01:12.011Z,17.29
2022-08-07T06:06:17.322Z,18.04
2022-08-07T06:11:20.855Z,19.01
2022-08-07T06:16:33.277Z,19.54
2022-08-07T06:22:14.500Z,20.48
2022-08-07T06:26:58.154Z,20.21
2022-08-07T06:32:01.601Z,20.65
2022-08-07T06:37:03.622Z,21.40
2022-08-07T06:42:32.979Z,21.07
2022-08-07T06:47:38.663Z,21.33
2022-08-07T06:52:55.886Z,20.93
2022-08-07T06:58:04.271Z,21.17
2022-08-07T07:03:10.818Z,22.11
2022-08-07T07:08:18.866Z,22.67
2022-08-07T07:13:58.224Z,22.61
2022-08-07T07:19:19.007Z,23.03
2022-08-07T07:24:29.479Z,25.34
2022-08-07T07:30:07.410Z,26.22
2022-08-07T07:35:10.005Z,24.74
2022-08-07T07:40:20.954Z,22.73
2022-08-07T07:46:40.151Z,24.25
2022-08-07T07:50:56.314Z,24.80
2022-08-07T07:56:01.299Z,27.06
2022-08-07T08:02:02.341Z,26.46
2022-08-07T08:06:29.515Z,23.76
2022-08-07T08:11:59.707Z,24.66
2022-08-07T08:16:58.137Z,26.31
2022-08-07T08:22:56.051Z,27.45
2022-08-07T08:28:04.181Z,25.97
2022-08-07T08:33:10.339Z,27.26
2022-08-07T08:38:29.528Z,26.87
2022-08-07T08:43:58.969Z,27.58
2022-08-07T08:49:46.400Z,29.39
2022-08-07T08:55:54.303Z,30.60
2022-08-07T09:01:29.794Z,30.68
2022-08-07T09:07:57.452Z,31.93
2022-08-07T09:13:37.171Z,25.46
2022-08-07T09:19:53.055Z,24.61
2022-08-07T09:25:21.606Z,28.49
2022-08-07T09:31:13.417Z,30.78
2022-08-07T09:36:46.823Z,31.36
2022-08-07T09:42:33.279Z,32.32
2022-08-07T09:48:01.198Z,33.04
2022-08-07T09:53:12.502Z,33.72
2022-08-07T09:58:57.471Z,33.06
2022-08-07T10:04:55.072Z,32.82
2022-08-07T10:11:59.830Z,30.28
2022-08-07T10:18:00.719Z,28.40
2022-08-07T10:24:05.621Z,25.76
2022-08-07T10:29:45.613Z,25.37
2022-08-07T10:35:10.629Z,25.51
2022-08-07T10:40:45.105Z,25.24
2022-08-07T10:46:00.069Z,24.76
2022-08-07T10:51:39.274Z,24.96
2022-08-07T10:57:36.983Z,25.72
2022-08-07T11:03:17.108Z,25.38
2022-08-07T11:08:54.643Z,24.92
2022-08-07T11:14:45.310Z,25.04
2022-08-07T11:20:24.404Z,25.10
2022-08-07T11:25:42.542Z,25.16
2022-08-07T11:30:54.436Z,24.28
2022-08-07T11:36:33.376Z,24.51
2022-08-07T11:42:03.159Z,24.46
2022-08-07T11:48:02.109Z,24.62
2022-08-07T11:53:43.254Z,25.17
2022-08-07T12:00:11.440Z,25.33
2022-08-07T12:05:41.375Z,25.09
2022-08-07T12:11:20.500Z,24.88
2022-08-07T12:16:35.190Z,25.01
2022-08-07T12:22:39.415Z,24.69
2022-08-07T12:28:09.373Z,24.81
2022-08-07T12:33:28.223Z,24.87
2022-08-07T12:38:43.092Z,24.53
2022-08-07T12:44:04.381Z,24.51
2022-08-07T12:49:39.794Z,24.44
2022-08-07T12:55:16.503Z,24.51
2022-08-07T13:00:50.369Z,24.70
2022-08-07T13:07:01.316Z,24.96
2022-08-07T13:12:32.908Z,24.64
2022-08-07T13:18:03.945Z,24.31
2022-08-07T13:24:00.553Z,24.01
2022-08-07T13:29:48.445Z,23.90
2022-08-07T13:35:21.132Z,24.02
2022-08-07T13:40:42.259Z,24.05
2022-08-07T13:46:12.188Z,24.33
2022-08-07T13:51:28.303Z,24.52
2022-08-07T13:56:51.732Z,24.14
2022-08-07T14:02:10.611Z,24.19
2022-08-07T14:07:17.495Z,23.68
2022-08-07T14:12:41.942Z,23.81
2022-08-07T14:18:23.396Z,23.91
2022-08-07T14:23:59.324Z,24.17
2022-08-07T14:28:57.425Z,24.28
2022-08-07T14:34:07.295Z,24.35
2022-08-07T14:39:12.557Z,24.38
2022-08-07T14:44:34.042Z,24.46
2022-08-07T14:55:02.713Z,24.25
2022-08-07T15:00:08.596Z,24.27
2022-08-07T15:10:58.656Z,24.08
2022-08-07T15:16:11.450Z,23.97
2022-08-07T15:21:59.519Z,23.83
2022-08-07T15:27:03.810Z,23.80
2022-08-07T15:32:12.448Z,23.71
2022-08-07T15:42:43.261Z,23.71
2022-08-07T15:48:12.970Z,23.74
2022-08-07T15:53:54.823Z,23.83
2022-08-07T15:59:16.304Z,23.96
2022-08-07T16:04:21.200Z,23.93
2022-08-07T16:09:52.286Z,23.87
2022-08-07T16:15:10.496Z,23.79
2022-08-07T16:22:04.955Z,23.74
2022-08-07T16:27:00.071Z,23.65
2022-08-07T16:32:35.381Z,23.59
2022-08-07T16:38:05.922Z,23.50
2022-08-07T16:44:02.785Z,23.53
2022-08-07T16:50:35.925Z,23.51
2022-08-07T16:55:55.434Z,23.47
2022-08-07T17:01:34.465Z,23.44
2022-08-07T17:07:03.344Z,23.45
2022-08-07T17:12:34.244Z,23.45
2022-08-07T17:17:57.580Z,23.51
2022-08-07T17:23:32.389Z,23.51
2022-08-07T17:28:52.249Z,23.49
2022-08-07T17:34:34.879Z,23.46
2022-08-07T17:40:11.118Z,23.42
2022-08-07T17:45:32.054Z,23.29
2022-08-07T17:51:09.566Z,23.18
2022-08-07T17:56:34.800Z,23.00
2022-08-07T18:01:56.916Z,22.95
2022-08-07T18:07:52.105Z,22.89
2022-08-07T18:13:41.452Z,22.81
2022-08-07T18:21:08.112Z,22.72
2022-08-07T18:24:36.176Z,22.66
2022-08-07T18:30:30.841Z,22.59
2022-08-07T18:35:55.820Z,22.52
2022-08-07T18:41:46.322Z,22.46
2022-08-07T18:47:44.505Z,22.36
2022-08-07T18:53:36.827Z,22.37
2022-08-07T18:59:47.041Z,22.27
2022-08-07T19:05:15.786Z,22.29
2022-08-07T19:10:31.322Z,22.22
2022-08-07T19:16:03.381Z,22.08
2022-08-07T19:21:34.709Z,21.97
2022-08-07T19:28:29.920Z,21.94
2022-08-07T19:32:42.291Z,21.83
2022-08-07T19:37:57.623Z,21.79
2022-08-07T19:43:08.092Z,21.71
2022-08-07T19:48:18.976Z,21.57
2022-08-07T19:54:33.108Z,21.47
2022-08-07T19:58:53.060Z,21.20
2022-08-07T20:03:57.688Z,21.23
2022-08-07T20:09:01.814Z,21.23
2022-08-07T20:14:07.146Z,21.27
2022-08-07T20:19:21.410Z,21.21
2022-08-07T20:29:48.374Z,21.09
2022-08-07T20:35:27.268Z,21.05
2022-08-07T20:40:37.489Z,20.79
2022-08-07T20:46:26.657Z,20.65
2022-08-07T20:51:12.872Z,20.59
2022-08-07T20:56:20.153Z,20.59
2022-08-07T21:01:45.806Z,20.49
2022-08-07T21:07:03.959Z,20.55
2022-08-07T21:12:15.074Z,20.54
2022-08-07T21:18:03.986Z,20.57
2022-08-07T21:22:54.361Z,20.49
2022-08-07T21:28:19.026Z,20.43
2022-08-07T21:33:54.658Z,20.41
2022-08-07T21:39:47.915Z,20.20
2022-08-07T21:46:05.063Z,19.94
2022-08-07T21:51:27.498Z,19.79
2022-08-07T21:56:51.939Z,19.90
2022-08-07T22:02:10.123Z,19.99
2022-08-07T22:07:31.878Z,20.03
2022-08-07T22:13:01.190Z,19.96
2022-08-07T22:18:42.041Z,19.79
2022-08-07T22:24:15.677Z,19.78
2022-08-07T22:29:49.652Z,19.80
2022-08-07T22:34:58.318Z,19.78
2022-08-07T22:40:33.807Z,19.85
2022-08-07T22:47:02.329Z,19.70
2022-08-07T22:52:37.759Z,19.47
2022-08-07T22:58:05.482Z,19.45
2022-08-07T23:04:07.928Z,19.49
2022-08-07T23:10:00.868Z,19.43
2022-08-07T23:16:05.824Z,19.31
2022-08-07T23:21:30.315Z,19.17
2022-08-07T23:27:35.719Z,19.10
2022-08-07T23:34:36.091Z,19.04
2022-08-07T23:39:40.788Z,19.09
2022-08-07T23:44:58.056Z,19.05
2022-08-07T23:50:20.823Z,19.00
2022-08-07T23:56:11.965Z,18.89
